createdAt,value
2019-01-03T00:01:53.329Z,103446.96
2019-01-03T00:05:25.427Z,103453.28
2019-01-03T00:08:50.068Z,103449.28
2019-01-03T00:12:13.545Z,103441.53
2019-01-03T00:15:35.514Z,103438.83
2019-01-03T00:19:10.537Z,103442.63
2019-01-03T00:22:34.327Z,103446.84
2019-01-03T00:26:14.732Z,103439.23
2019-01-03T00:29:48.835Z,103444.38
2019-01-03T00:33:16.694Z,103432.54
2019-01-03T00:36:46.004Z,103427.63
2019-01-03T00:40:07.548Z,103434.02
2019-01-03T00:43:30.740Z,103447.67
2019-01-03T00:47:00.022Z,103455.20
2019-01-03T00:50:25.349Z,103448.19
2019-01-03T00:53:42.918Z,103453.49
2019-01-03T00:57:26.100Z,103442.05
2019-01-03T01:00:43.956Z,103432.44
2019-01-03T01:04:10.084Z,103434.73
2019-01-03T01:07:39.677Z,103432.04
2019-01-03T01:11:45.859Z,103431.53
2019-01-03T01:14:26.724Z,103437.66
2019-01-03T01:17:58.117Z,103437.75
2019-01-03T01:21:15.119Z,103436.97
2019-01-03T01:24:59.970Z,103439.58
2019-01-03T01:28:18.322Z,103439.94
2019-01-03T01:32:18.935Z,103442.97
2019-01-03T01:35:42.051Z,103435.94
2019-01-03T01:39:08.029Z,103439.94
2019-01-03T01:42:31.292Z,103442.85
2019-01-03T01:45:54.496Z,103442.67
2019-01-03T01:49:27.317Z,103449.67
2019-01-03T01:53:00.981Z,103448.58
2019-01-03T01:56:23.371Z,103446.28
2019-01-03T01:59:52.439Z,103436.63
2019-01-03T02:03:31.058Z,103437.63
2019-01-03T02:06:49.453Z,103433.33
2019-01-03T02:10:11.657Z,103440.76
2019-01-03T02:13:37.844Z,103436.45
2019-01-03T02:17:04.999Z,103436.02
2019-01-03T02:20:34.423Z,103433.93
2019-01-03T02:24:07.089Z,103430.11
2019-01-03T02:27:41.844Z,103428.18
2019-01-03T02:31:03.440Z,103423.78
2019-01-03T02:34:27.571Z,103420.66
2019-01-03T02:37:56.172Z,103422.17
2019-01-03T02:41:22.027Z,103417.41
2019-01-03T02:44:49.172Z,103421.80
2019-01-03T02:48:17.244Z,103416.33
2019-01-03T02:51:36.919Z,103415.11
2019-01-03T02:55:01.145Z,103421.94
2019-01-03T02:58:23.713Z,103423.73
2019-01-03T03:01:53.332Z,103410.89
2019-01-03T03:05:16.906Z,103413.48
2019-01-03T03:08:32.084Z,103417.51
2019-01-03T03:12:09.886Z,103418.02
2019-01-03T03:15:30.877Z,103415.02
2019-01-03T03:18:48.797Z,103416.81
2019-01-03T03:22:11.100Z,103406.88
2019-01-03T03:25:49.824Z,103407.05
2019-01-03T03:29:08.650Z,103398.83
2019-01-03T03:32:36.871Z,103401.12
2019-01-03T03:36:12.038Z,103393.43
2019-01-03T03:39:46.952Z,103382.12
2019-01-03T03:43:19.425Z,103381.63
2019-01-03T03:46:42.852Z,103376.60
2019-01-03T03:50:12.456Z,103378.30
2019-01-03T03:53:51.429Z,103374.44
2019-01-03T03:57:24.495Z,103372.14
2019-01-03T04:01:03.091Z,103352.84
2019-01-03T04:04:28.197Z,103347.69
2019-01-03T04:08:09.815Z,103355.22
2019-01-03T04:11:32.210Z,103359.30
2019-01-03T04:15:02.941Z,103358.41
2019-01-03T04:18:32.181Z,103353.00
2019-01-03T04:22:06.405Z,103344.48
2019-01-03T04:25:29.117Z,103333.69
2019-01-03T04:28:52.421Z,103334.01
2019-01-03T04:32:19.895Z,103337.46
2019-01-03T04:35:43.325Z,103330.22
2019-01-03T04:39:19.161Z,103335.22
2019-01-03T04:42:46.856Z,103335.28
2019-01-03T04:46:16.017Z,103345.23
2019-01-03T04:50:00.552Z,103342.86
2019-01-03T04:53:23.901Z,103353.20
2019-01-03T04:56:46.154Z,103358.42
2019-01-03T05:00:19.015Z,103365.13
2019-01-03T05:04:06.555Z,103370.98
2019-01-03T05:07:34.580Z,103360.70
2019-01-03T05:11:05.192Z,103359.55
2019-01-03T05:14:36.191Z,103356.45
2019-01-03T05:18:20.763Z,103361.66
2019-01-03T05:21:53.906Z,103369.53
2019-01-03T05:25:17.206Z,103359.14
2019-01-03T05:28:40.390Z,103354.81
2019-01-03T05:36:03.524Z,103349.21
2019-01-03T05:39:27.115Z,103351.25
2019-01-03T05:43:03.126Z,103365.78
2019-01-03T05:46:34.030Z,103370.30
2019-01-03T05:50:06.170Z,103367.48
2019-01-03T05:53:38.140Z,103381.53
2019-01-03T05:57:13.224Z,103383.05
2019-01-03T06:00:45.496Z,103388.66
2019-01-03T06:04:13.919Z,103379.84
2019-01-03T06:07:37.228Z,103386.09
2019-01-03T06:11:18.945Z,103401.62
2019-01-03T06:14:40.844Z,103407.05
2019-01-03T06:18:10.493Z,103406.36
2019-01-03T06:21:43.083Z,103408.14
2019-01-03T06:25:05.176Z,103415.27
2019-01-03T06:28:27.144Z,103412.58
2019-01-03T06:31:59.635Z,103411.88
2019-01-03T06:35:26.326Z,103413.57
2019-01-03T06:38:59.173Z,103410.17
2019-01-03T06:42:33.549Z,103414.57
2019-01-03T06:45:54.607Z,103416.48
2019-01-03T06:49:34.341Z,103415.38
2019-01-03T06:52:59.647Z,103416.17
2019-01-03T06:56:26.695Z,103428.21
2019-01-03T07:00:05.251Z,103431.12
2019-01-03T07:03:27.794Z,103423.20
2019-01-03T07:07:06.482Z,103430.33
2019-01-03T07:10:28.601Z,103435.94
2019-01-03T07:13:50.937Z,103437.33
2019-01-03T07:17:20.177Z,103439.75
2019-01-03T07:20:52.795Z,103452.66
2019-01-03T07:24:13.849Z,103467.02
2019-01-03T07:27:37.123Z,103466.63
2019-01-03T07:31:16.774Z,103481.47
2019-01-03T07:34:55.009Z,103477.26
2019-01-03T07:38:18.342Z,103484.27
2019-01-03T07:41:55.393Z,103487.00
2019-01-03T07:45:33.757Z,103492.91
2019-01-03T07:48:57.529Z,103492.41
2019-01-03T07:52:21.032Z,103496.11
2019-01-03T07:55:44.385Z,103498.03
2019-01-03T07:59:07.761Z,103506.39
2019-01-03T08:02:30.135Z,103507.27
2019-01-03T08:05:45.873Z,103508.59
2019-01-03T08:09:09.158Z,103510.41
2019-01-03T08:12:47.653Z,103513.63
2019-01-03T08:16:17.164Z,103514.42
2019-01-03T08:19:52.954Z,103520.66
2019-01-03T08:23:15.122Z,103522.97
2019-01-03T08:26:37.203Z,103526.06
2019-01-03T08:30:12.630Z,103529.48
2019-01-03T08:33:52.008Z,103524.75
2019-01-03T08:37:17.017Z,103530.09
2019-01-03T08:40:38.806Z,103532.41
2019-01-03T08:44:14.068Z,103537.34
2019-01-03T08:47:36.148Z,103536.73
2019-01-03T08:51:05.231Z,103536.82
2019-01-03T08:54:35.528Z,103541.61
2019-01-03T08:57:59.862Z,103537.60
2019-01-03T09:01:22.830Z,103533.07
2019-01-03T09:04:52.317Z,103524.52
2019-01-03T09:08:21.178Z,103532.14
2019-01-03T09:11:50.487Z,103528.20
2019-01-03T09:15:16.723Z,103525.08
2019-01-03T09:18:38.686Z,103534.95
2019-01-03T09:22:05.374Z,103536.25
2019-01-03T09:25:37.768Z,103545.88
2019-01-03T09:28:59.797Z,103556.00
2019-01-03T09:32:17.306Z,103567.84
2019-01-03T09:35:39.366Z,103567.00
2019-01-03T09:39:06.142Z,103564.67
2019-01-03T09:42:46.469Z,103564.03
2019-01-03T09:45:51.159Z,103560.45
2019-01-03T09:48:55.421Z,103557.41
2019-01-03T09:51:59.585Z,103549.70
2019-01-03T09:55:03.882Z,103545.63
2019-01-03T09:58:08.225Z,103546.70
2019-01-03T10:01:12.407Z,103540.31
2019-01-03T10:04:16.695Z,103545.55
2019-01-03T10:07:20.924Z,103537.59
2019-01-03T10:10:25.068Z,103542.88
2019-01-03T10:13:29.265Z,103551.49
2019-01-03T10:16:33.515Z,103546.80
2019-01-03T10:19:37.634Z,103541.17
2019-01-03T10:22:41.733Z,103543.00
2019-01-03T10:25:46.039Z,103541.04
2019-01-03T10:28:50.535Z,103548.44
2019-01-03T10:31:55.235Z,103549.81
2019-01-03T10:34:59.625Z,103554.66
2019-01-03T10:38:04.118Z,103549.34
2019-01-03T10:41:08.521Z,103558.12
2019-01-03T10:44:12.973Z,103558.45
2019-01-03T10:47:17.391Z,103557.94
2019-01-03T10:50:21.564Z,103556.81
2019-01-03T10:53:25.908Z,103552.05
2019-01-03T10:56:30.129Z,103549.34
2019-01-03T10:59:34.331Z,103543.52
2019-01-03T11:02:38.327Z,103529.48
2019-01-03T11:05:42.501Z,103529.23
2019-01-03T11:08:46.733Z,103537.11
2019-01-03T11:11:51.003Z,103533.93
2019-01-03T11:14:55.300Z,103531.22
2019-01-03T11:17:59.330Z,103526.60
2019-01-03T11:21:03.486Z,103509.27
2019-01-03T11:24:07.917Z,103513.19
2019-01-03T11:27:12.196Z,103515.55
2019-01-03T11:30:16.528Z,103517.06
2019-01-03T11:33:20.721Z,103519.73
2019-01-03T11:36:24.989Z,103519.52
2019-01-03T11:39:29.058Z,103510.95
2019-01-03T11:42:33.230Z,103509.89
2019-01-03T11:45:37.418Z,103507.89
2019-01-03T11:48:45.451Z,103505.26
2019-01-03T11:51:49.476Z,103502.00
2019-01-03T11:54:53.519Z,103504.85
2019-01-03T11:57:57.664Z,103492.60
2019-01-03T12:01:03.584Z,103495.23
2019-01-03T12:04:07.481Z,103488.27
2019-01-03T12:07:11.359Z,103495.11
2019-01-03T12:10:15.456Z,103492.44
2019-01-03T12:13:19.373Z,103494.72
2019-01-03T12:16:23.501Z,103497.02
2019-01-03T12:19:27.557Z,103504.38
2019-01-03T12:22:32.006Z,103501.30
2019-01-03T12:25:37.779Z,103488.73
2019-01-03T12:28:42.443Z,103491.03
2019-01-03T12:31:46.478Z,103498.73
2019-01-03T12:34:50.572Z,103495.14
2019-01-03T12:37:54.522Z,103497.83
2019-01-03T12:40:58.727Z,103500.22
2019-01-03T12:44:03.053Z,103496.11
2019-01-03T12:47:09.412Z,103488.84
2019-01-03T12:50:13.351Z,103493.36
2019-01-03T12:53:17.809Z,103491.11
2019-01-03T12:56:23.885Z,103493.52
2019-01-03T12:59:28.303Z,103501.66
2019-01-03T13:02:32.516Z,103502.84
2019-01-03T13:05:36.723Z,103499.37
2019-01-03T13:08:41.252Z,103488.28
2019-01-03T13:11:45.920Z,103494.23
2019-01-03T13:14:50.373Z,103485.02
2019-01-03T13:17:54.832Z,103486.63
2019-01-03T13:21:01.587Z,103477.36
2019-01-03T13:24:05.952Z,103475.03
2019-01-03T13:27:10.400Z,103486.78
2019-01-03T13:30:18.886Z,103487.77
2019-01-03T13:33:23.220Z,103493.17
2019-01-03T13:36:27.491Z,103493.07
2019-01-03T13:39:31.752Z,103499.68
2019-01-03T13:42:36.155Z,103501.71
2019-01-03T13:45:40.341Z,103500.43
2019-01-03T13:48:46.116Z,103508.31
2019-01-03T13:51:51.987Z,103510.77
2019-01-03T13:54:56.583Z,103520.20
2019-01-03T13:58:00.939Z,103528.02
2019-01-03T14:01:05.390Z,103537.03
2019-01-03T14:04:09.683Z,103539.02
2019-01-03T14:07:14.112Z,103555.58
2019-01-03T14:10:18.527Z,103561.02
2019-01-03T14:13:22.772Z,103555.69
2019-01-03T14:16:27.293Z,103556.11
2019-01-03T14:19:34.587Z,103561.38
2019-01-03T14:22:38.607Z,103557.52
2019-01-03T14:25:42.680Z,103565.18
2019-01-03T14:28:46.940Z,103572.88
2019-01-03T14:31:51.364Z,103576.81
2019-01-03T14:34:55.850Z,103576.30
2019-01-03T14:38:02.843Z,103577.03
2019-01-03T14:41:07.126Z,103582.47
2019-01-03T14:44:11.484Z,103587.53
2019-01-03T14:47:15.595Z,103582.86
2019-01-03T14:50:20.017Z,103586.53
2019-01-03T14:53:24.263Z,103581.43
2019-01-03T14:56:28.500Z,103579.24
2019-01-03T14:59:32.808Z,103589.94
2019-01-03T15:02:37.294Z,103593.72
2019-01-03T15:05:41.420Z,103591.16
2019-01-03T15:08:45.504Z,103585.25
2019-01-03T15:11:49.620Z,103576.47
2019-01-03T15:14:53.789Z,103575.81
2019-01-03T15:17:58.067Z,103581.85
2019-01-03T15:21:02.434Z,103590.60
2019-01-03T15:24:06.476Z,103606.19
2019-01-03T15:27:13.842Z,103604.38
2019-01-03T15:30:18.221Z,103604.30
2019-01-03T15:33:22.481Z,103597.27
2019-01-03T15:36:26.623Z,103598.63
2019-01-03T15:39:30.909Z,103601.56
2019-01-03T15:42:34.960Z,103602.20
2019-01-03T15:45:39.051Z,103606.25
2019-01-03T15:48:43.271Z,103605.81
2019-01-03T15:51:47.575Z,103611.88
2019-01-03T15:54:51.855Z,103601.25
2019-01-03T15:57:56.147Z,103594.30
2019-01-03T16:01:00.377Z,103594.02
2019-01-03T16:04:04.685Z,103602.19
2019-01-03T16:07:08.739Z,103598.98
2019-01-03T16:10:12.874Z,103604.45
2019-01-03T16:13:17.277Z,103605.55
2019-01-03T16:16:21.349Z,103601.94
2019-01-03T16:19:25.913Z,103611.02
2019-01-03T16:22:30.274Z,103615.27
2019-01-03T16:25:34.569Z,103620.89
2019-01-03T16:28:38.657Z,103616.54
2019-01-03T16:31:42.738Z,103621.94
2019-01-03T16:34:46.806Z,103622.85
2019-01-03T16:37:54.240Z,103613.77
2019-01-03T16:40:58.603Z,103609.37
2019-01-03T16:44:02.957Z,103606.39
2019-01-03T16:47:07.382Z,103601.47
2019-01-03T16:50:14.335Z,103601.47
2019-01-03T16:53:18.767Z,103598.25
2019-01-03T16:56:24.850Z,103602.48
2019-01-03T16:59:29.196Z,103595.95
2019-01-03T17:02:33.405Z,103598.45
2019-01-03T17:05:37.686Z,103587.23
2019-01-03T17:08:41.835Z,103577.33
2019-01-03T17:11:46.273Z,103575.62
2019-01-03T17:14:50.374Z,103577.24
2019-01-03T17:17:54.616Z,103582.59
2019-01-03T17:20:59.191Z,103583.82
2019-01-03T17:24:03.681Z,103581.60
2019-01-03T17:27:08.204Z,103584.62
2019-01-03T17:30:12.981Z,103585.77
2019-01-03T17:33:17.838Z,103583.55
2019-01-03T17:36:22.482Z,103587.77
2019-01-03T17:39:26.995Z,103587.64
2019-01-03T17:42:31.313Z,103590.19
2019-01-03T17:45:35.744Z,103590.94
2019-01-03T17:48:40.063Z,103580.30
2019-01-03T17:51:45.807Z,103578.23
2019-01-03T17:54:50.171Z,103584.35
2019-01-03T17:57:54.538Z,103584.55
2019-01-03T18:00:58.736Z,103583.83
2019-01-03T18:04:03.823Z,103578.87
2019-01-03T18:07:08.334Z,103577.73
2019-01-03T18:10:16.584Z,103575.15
2019-01-03T18:13:20.650Z,103577.41
2019-01-03T18:16:24.853Z,103585.27
2019-01-03T18:19:29.139Z,103579.35
2019-01-03T18:22:33.324Z,103579.03
2019-01-03T18:25:37.524Z,103585.45
2019-01-03T18:28:41.669Z,103576.97
2019-01-03T18:31:45.924Z,103586.61
2019-01-03T18:34:52.075Z,103583.36
2019-01-03T18:37:56.893Z,103584.72
2019-01-03T18:41:01.206Z,103583.14
2019-01-03T18:44:06.036Z,103586.60
2019-01-03T18:47:09.995Z,103586.13
2019-01-03T18:50:18.886Z,103574.45
2019-01-03T18:53:20.221Z,103575.28
2019-01-03T18:56:24.324Z,103583.94
2019-01-03T18:59:28.347Z,103581.51
2019-01-03T19:02:33.118Z,103581.43
2019-01-03T19:05:37.462Z,103578.41
2019-01-03T19:08:41.604Z,103577.61
2019-01-03T19:11:45.791Z,103577.73
2019-01-03T19:14:49.912Z,103567.45
2019-01-03T19:17:54.115Z,103567.26
2019-01-03T19:20:58.610Z,103555.78
2019-01-03T19:24:02.671Z,103552.50
2019-01-03T19:27:06.909Z,103553.17
2019-01-03T19:30:17.913Z,103549.83
2019-01-03T19:33:22.306Z,103552.20
2019-01-03T19:36:26.422Z,103541.86
2019-01-03T19:39:30.446Z,103541.61
2019-01-03T19:42:34.592Z,103543.03
2019-01-03T19:45:38.727Z,103542.92
2019-01-03T19:48:43.154Z,103534.39
2019-01-03T19:51:47.590Z,103544.34
2019-01-03T19:54:52.260Z,103548.34
2019-01-03T19:57:57.358Z,103544.89
2019-01-03T20:01:01.646Z,103539.70
2019-01-03T20:04:07.797Z,103535.67
2019-01-03T20:07:13.179Z,103518.56
2019-01-03T20:10:17.541Z,103519.88
2019-01-03T20:13:22.535Z,103510.41
2019-01-03T20:16:27.024Z,103502.03
2019-01-03T20:19:31.456Z,103499.73
2019-01-03T20:22:38.808Z,103495.62
2019-01-03T20:25:43.207Z,103487.09
2019-01-03T20:28:47.521Z,103487.33
2019-01-03T20:31:52.003Z,103484.77
2019-01-03T20:34:56.564Z,103479.75
2019-01-03T20:38:01.223Z,103484.80
2019-01-03T20:41:05.784Z,103479.34
2019-01-03T20:44:10.452Z,103479.48
2019-01-03T20:47:15.210Z,103469.63
2019-01-03T20:50:22.735Z,103474.54
2019-01-03T20:53:27.443Z,103476.52
2019-01-03T20:56:35.784Z,103470.46
2019-01-03T20:59:39.932Z,103469.63
2019-01-03T21:02:45.717Z,103465.45
2019-01-03T21:05:50.682Z,103463.83
2019-01-03T21:08:55.185Z,103449.48
2019-01-03T21:12:00.204Z,103454.41
2019-01-03T21:15:05.291Z,103447.00
2019-01-03T21:18:10.391Z,103445.66
2019-01-03T21:21:15.134Z,103449.45
2019-01-03T21:24:19.630Z,103446.16
2019-01-03T21:27:24.126Z,103442.16
2019-01-03T21:30:28.941Z,103440.00
2019-01-03T21:33:33.537Z,103430.88
2019-01-03T21:36:38.474Z,103425.28
2019-01-03T21:39:43.299Z,103430.06
2019-01-03T21:42:47.893Z,103432.08
2019-01-03T21:45:52.216Z,103435.62
2019-01-03T21:48:56.557Z,103438.71
2019-01-03T21:52:01.011Z,103431.19
2019-01-03T21:58:28.873Z,103434.22
2019-01-03T22:01:33.111Z,103430.28
2019-01-03T22:04:37.546Z,103421.87
2019-01-03T22:07:44.307Z,103412.91
2019-01-03T22:10:48.758Z,103418.58
2019-01-03T22:13:53.076Z,103418.12
2019-01-03T22:16:57.609Z,103409.83
2019-01-03T22:20:27.184Z,103407.77
2019-01-03T22:23:34.767Z,103403.65
2019-01-03T22:26:39.220Z,103395.01
2019-01-03T22:29:46.793Z,103375.72
2019-01-03T22:32:51.141Z,103365.83
2019-01-03T22:35:55.716Z,103360.91
2019-01-03T22:39:00.000Z,103344.85
2019-01-03T22:42:04.435Z,103339.16
2019-01-03T22:45:10.262Z,103340.84
2019-01-03T22:48:14.525Z,103343.23
2019-01-03T22:51:25.085Z,103336.05
2019-01-03T22:54:29.305Z,103333.03
2019-01-03T22:57:33.740Z,103329.23
2019-01-03T23:00:49.497Z,103325.75
2019-01-03T23:04:02.867Z,103329.23
2019-01-03T23:07:07.201Z,103333.28
2019-01-03T23:10:11.919Z,103337.59
2019-01-03T23:13:16.116Z,103335.51
2019-01-03T23:16:20.193Z,103333.78
2019-01-03T23:19:24.213Z,103336.06
2019-01-03T23:22:30.059Z,103336.78
2019-01-03T23:25:36.435Z,103339.16
2019-01-03T23:28:40.633Z,103327.31
2019-01-03T23:31:47.746Z,103325.14
2019-01-03T23:34:53.464Z,103318.41
2019-01-03T23:37:58.069Z,103319.36
2019-01-03T23:41:02.504Z,103311.72
2019-01-03T23:44:08.438Z,103318.44
2019-01-03T23:47:19.434Z,103311.45
2019-01-03T23:50:31.478Z,103302.34
2019-01-03T23:53:36.037Z,103309.88
2019-01-03T23:56:40.152Z,103296.96
2019-01-03T23:59:44.332Z,103305.71
